Time;durP1;ratioP1;P1;durP2;ratioP2;P2;SDS_P1;SDS_P2;PMS_P1;PMS_P2;Temp;Humidity;BMP_temperature;BMP_pressure;BME280_temperature;BME280_humidity;BME280_pressure;Samples;Min_cycle;Max_cycle;Signal;HPM_P1;HPM_P2
2022/03/02 00:00:08;;;;;;;34.00;22.40;;;9.90;1.00;;;;;;4992132;28;20186;-87
2022/03/02 00:02:35;;;;;;;24.23;18.50;;;10.00;1.00;;;;;;5006982;28;20178;-87
2022/03/02 00:05:07;;;;;;;25.53;19.27;;;10.00;66.30;;;;;;5005624;28;20194;-87
2022/03/02 00:07:50;;;;;;;30.30;21.03;;;9.90;99.90;;;;;;5017342;28;20194;-87
2022/03/02 00:10:23;;;;;;;31.07;20.97;;;10.00;1.00;;;;;;5001641;28;20182;-87
2022/03/02 00:12:52;;;;;;;25.53;18.17;;;10.00;1.00;;;;;;5001885;28;20658;-89
2022/03/02 00:15:37;;;;;;;26.67;20.23;;;10.00;7.20;;;;;;5003170;28;20678;-87
2022/03/02 00:18:03;;;;;;;28.53;19.93;;;10.00;1.00;;;;;;5021967;28;20178;-88
2022/03/02 00:20:28;;;;;;;28.37;20.30;;;10.10;99.90;;;;;;5002088;28;20232;-87
2022/03/02 00:23:12;;;;;;;24.73;18.10;;;10.10;99.90;;;;;;5002351;28;20538;-87
2022/03/02 00:25:41;;;;;;;28.13;19.67;;;10.10;1.00;;;;;;5004314;28;20189;-88
2022/03/02 00:28:08;;;;;;;25.93;18.50;;;10.10;1.00;;;;;;5005501;28;20182;-88
2022/03/02 00:30:37;;;;;;;25.77;20.13;;;10.10;99.90;;;;;;4996701;28;20718;-88
2022/03/02 00:33:06;;;;;;;25.80;18.83;;;10.00;1.00;;;;;;5005341;28;20585;-86
2022/03/02 00:35:39;;;;;;;27.07;19.40;;;10.00;1.00;;;;;;5022631;28;20214;-86
2022/03/02 00:41:27;;;;;;;26.10;20.00;;;10.00;1.00;;;;;;5022990;28;20181;-87
2022/03/02 00:44:03;;;;;;;30.70;20.57;;;10.10;1.00;;;;;;5005672;28;20182;-86
2022/03/02 00:46:29;;;;;;;31.53;20.40;;;10.00;1.00;;;;;;5005901;28;20194;-87
2022/03/02 00:49:03;;;;;;;27.17;19.77;;;9.90;61.30;;;;;;5007068;28;20210;-88
2022/03/02 00:51:31;;;;;;;25.67;19.80;;;9.70;99.90;;;;;;5007609;28;20185;-87
2022/03/02 00:54:01;;;;;;;29.63;19.73;;;9.40;1.00;;;;;;5008867;28;20214;-86
2022/03/02 00:56:31;;;;;;;29.37;20.57;;;9.10;99.90;;;;;;5010207;28;20273;-87
2022/03/02 00:58:58;;;;;;;28.67;21.27;;;8.90;1.00;;;;;;5009926;28;20210;-87
2022/03/02 01:01:34;;;;;;;25.77;19.57;;;8.90;1.00;;;;;;5008843;28;20155;-88
2022/03/02 01:04:03;;;;;;;28.47;20.53;;;9.00;99.90;;;;;;5008300;28;20193;-87
2022/03/02 01:06:29;;;;;;;28.50;20.60;;;9.00;1.00;;;;;;5009702;28;20213;-86
2022/03/02 01:09:04;;;;;;;24.20;19.00;;;9.00;1.00;;;;;;5005985;28;20175;-86
2022/03/02 01:11:34;;;;;;;27.93;20.10;;;8.80;1.00;;;;;;5007859;28;20189;-87
2022/03/02 01:14:03;;;;;;;29.77;20.37;;;8.60;1.00;;;;;;5007248;28;20274;-88
2022/03/02 01:16:29;;;;;;;25.87;19.00;;;8.60;99.90;;;;;;5007520;28;20238;-87
2022/03/02 01:18:58;;;;;;;32.87;20.63;;;8.60;99.90;;;;;;5008728;28;20179;-87
2022/03/02 01:21:30;;;;;;;28.47;20.40;;;8.50;1.00;;;;;;4998840;28;20174;-85
2022/03/02 01:24:20;;;;;;;30.70;21.27;;;8.60;52.10;;;;;;4998154;28;20205;-86
2022/03/02 01:26:55;;;;;;;31.53;22.57;;;8.90;1.00;;;;;;5010388;28;20273;-86
2022/03/02 01:29:23;;;;;;;32.93;20.63;;;9.10;99.90;;;;;;5007060;28;20169;-88
2022/03/02 01:31:50;;;;;;;30.97;20.97;;;9.00;1.00;;;;;;5004010;28;20194;-86
2022/03/02 01:34:16;;;;;;;33.13;21.73;;;9.10;99.90;;;;;;5003226;28;20300;-87
2022/03/02 01:36:42;;;;;;;31.80;21.60;;;8.90;99.90;;;;;;5002474;28;20261;-87
2022/03/02 01:39:10;;;;;;;31.57;21.90;;;9.10;1.00;;;;;;5004004;28;20630;-87
2022/03/02 01:41:37;;;;;;;31.00;22.17;;;8.90;99.90;;;;;;5006439;28;20186;-86
2022/03/02 01:44:11;;;;;;;33.73;21.30;;;8.90;99.90;;;;;;5004285;28;20170;-87
2022/03/02 01:46:46;;;;;;;31.20;21.87;;;8.90;99.90;;;;;;5004771;28;20627;-88
2022/03/02 01:49:44;;;;;;;33.90;22.50;;;8.80;99.90;;;;;;5003519;28;20202;-87
2022/03/02 01:52:10;;;;;;;32.47;22.37;;;8.60;1.00;;;;;;5003975;28;20185;-87
2022/03/02 01:54:48;;;;;;;30.93;22.83;;;8.80;99.90;;;;;;4985640;28;20277;-89
2022/03/02 01:57:14;;;;;;;28.43;20.83;;;8.80;1.00;;;;;;5020392;28;20190;-89
2022/03/02 01:59:53;;;;;;;36.67;23.20;;;8.90;99.90;;;;;;5004654;28;20178;-88
2022/03/02 02:02:27;;;;;;;30.83;22.53;;;8.80;99.90;;;;;;5002812;28;20217;-89
2022/03/02 02:05:25;;;;;;;29.57;22.93;;;8.80;99.90;;;;;;5003221;28;20587;-87
2022/03/02 02:11:14;;;;;;;28.93;21.97;;;8.80;1.00;;;;;;5029926;28;20170;-87
2022/03/02 02:13:42;;;;;;;33.47;23.40;;;8.80;99.90;;;;;;4993358;28;20190;-89
2022/03/02 02:16:13;;;;;;;31.57;21.47;;;8.70;1.00;;;;;;5011294;28;20256;-87
2022/03/02 02:18:50;;;;;;;30.20;21.53;;;8.60;99.90;;;;;;5033081;28;20175;-88
2022/03/02 02:21:28;;;;;;;29.33;22.83;;;8.60;1.00;;;;;;5014656;28;20181;-86
2022/03/02 02:23:55;;;;;;;28.17;21.20;;;8.40;99.90;;;;;;5007602;28;20639;-87
2022/03/02 02:26:21;;;;;;;31.30;21.73;;;8.40;99.90;;;;;;5009696;28;20166;-89
2022/03/02 02:28:49;;;;;;;30.87;23.10;;;8.50;99.90;;;;;;5021411;28;20209;-87
2022/03/02 02:31:18;;;;;;;27.93;21.93;;;8.40;99.90;;;;;;5013768;28;20186;-87
2022/03/02 02:33:44;;;;;;;33.23;23.33;;;8.60;1.00;;;;;;5008118;28;20190;-86
2022/03/02 02:36:12;;;;;;;30.30;22.97;;;8.50;99.90;;;;;;5013611;28;20214;-88
2022/03/02 02:38:37;;;;;;;28.43;22.80;;;8.50;1.00;;;;;;5013411;28;20202;-87
2022/03/02 02:41:06;;;;;;;30.73;22.40;;;8.40;1.00;;;;;;5011032;28;20182;-86
2022/03/02 02:43:33;;;;;;;33.37;23.03;;;8.30;1.00;;;;;;5023480;28;20170;-88
2022/03/02 02:45:59;;;;;;;29.47;23.17;;;8.30;1.00;;;;;;5009092;28;20174;-87
2022/03/02 02:48:26;;;;;;;32.70;22.97;;;8.40;47.20;;;;;;5006484;28;20184;-87
2022/03/02 02:50:52;;;;;;;31.07;22.40;;;8.30;47.50;;;;;;5005413;28;20193;-87
2022/03/02 02:53:18;;;;;;;29.20;22.17;;;8.50;99.90;;;;;;5002614;28;20190;-88
2022/03/02 02:55:47;;;;;;;36.53;22.70;;;8.20;99.90;;;;;;5002679;28;20585;-89
2022/03/02 02:58:14;;;;;;;29.93;22.20;;;8.20;99.90;;;;;;5002338;28;20221;-89
2022/03/02 03:00:46;;;;;;;29.33;21.77;;;8.30;99.90;;;;;;5003237;28;20631;-88
2022/03/02 03:03:12;;;;;;;29.47;21.80;;;8.30;99.90;;;;;;5013453;28;20182;-88
2022/03/02 03:05:40;;;;;;;31.47;22.67;;;8.30;99.90;;;;;;5021904;28;20182;-87
2022/03/02 03:08:09;;;;;;;29.23;23.77;;;8.20;99.90;;;;;;5021585;28;20198;-88
2022/03/02 03:10:36;;;;;;;31.17;23.20;;;8.20;99.90;;;;;;5019739;28;20206;-89
2022/03/02 03:13:06;;;;;;;30.83;22.17;;;8.30;99.90;;;;;;4999662;28;20205;-88
2022/03/02 03:15:35;;;;;;;29.17;22.03;;;8.30;99.90;;;;;;4999499;28;20210;-87
2022/03/02 03:18:04;;;;;;;29.87;22.07;;;8.30;99.90;;;;;;4999524;28;20179;-88
2022/03/02 03:20:31;;;;;;;31.57;22.03;;;8.30;99.90;;;;;;4999894;28;20189;-87
2022/03/02 03:22:57;;;;;;;27.53;21.77;;;8.30;99.90;;;;;;4999982;28;20276;-88
2022/03/02 03:25:28;;;;;;;27.13;22.13;;;8.30;99.90;;;;;;5019988;28;20213;-88
2022/03/02 03:27:59;;;;;;;30.03;22.13;;;8.30;99.90;;;;;;5002196;28;20162;-88
2022/03/02 03:30:28;;;;;;;26.30;21.10;;;8.20;99.90;;;;;;5001597;28;20186;-87
2022/03/02 03:33:04;;;;;;;31.63;22.50;;;8.20;99.90;;;;;;5000904;28;20178;-88
2022/03/02 03:35:30;;;;;;;31.53;22.40;;;8.30;99.90;;;;;;5001157;28;20217;-89
2022/03/02 03:38:04;;;;;;;32.77;21.77;;;8.40;99.90;;;;;;4999515;28;20210;-89
2022/03/02 03:40:33;;;;;;;29.33;22.60;;;8.40;99.90;;;;;;4984188;28;20186;-88
2022/03/02 03:43:17;;;;;;;30.20;21.17;;;8.30;99.90;;;;;;5000055;28;20209;-90
2022/03/02 03:45:46;;;;;;;28.47;21.70;;;8.30;99.90;;;;;;4999622;28;20241;-87
2022/03/02 03:48:12;;;;;;;31.00;22.03;;;8.30;99.90;;;;;;4999910;28;20627;-88
2022/03/02 03:50:37;;;;;;;30.03;22.17;;;8.40;99.90;;;;;;5000334;28;20185;-88
2022/03/02 03:53:03;;;;;;;30.57;22.53;;;8.40;99.90;;;;;;4999830;28;20341;-87
2022/03/02 03:55:29;;;;;;;27.77;21.40;;;8.40;12.60;;;;;;5001632;28;20229;-87
2022/03/02 03:57:55;;;;;;;28.67;21.10;;;8.50;31.10;;;;;;4999902;28;20685;-88
2022/03/02 04:00:21;;;;;;;32.07;22.87;;;8.30;99.90;;;;;;5003644;28;20265;-89
2022/03/02 04:02:48;;;;;;;33.77;22.23;;;8.10;99.90;;;;;;5020594;28;20178;-87
2022/03/02 04:05:16;;;;;;;29.13;21.37;;;8.20;99.90;;;;;;5003216;28;20611;-89
2022/03/02 04:07:45;;;;;;;32.30;21.60;;;8.20;99.90;;;;;;5004089;28;20204;-86
2022/03/02 04:10:14;;;;;;;28.40;22.00;;;8.20;99.90;;;;;;5004251;28;20237;-88
2022/03/02 04:12:41;;;;;;;30.07;22.20;;;8.20;99.90;;;;;;5021281;28;20233;-86
2022/03/02 04:15:10;;;;;;;28.83;22.20;;;8.20;99.90;;;;;;5003699;28;20217;-87
2022/03/02 04:17:39;;;;;;;27.00;20.53;;;8.10;99.90;;;;;;5021010;28;20193;-88
2022/03/02 04:20:11;;;;;;;32.47;22.47;;;8.10;99.90;;;;;;5004248;28;20178;-87
2022/03/02 04:22:43;;;;;;;30.83;21.37;;;7.90;99.90;;;;;;5022028;28;20626;-88
2022/03/02 04:25:10;;;;;;;30.80;21.47;;;8.20;99.90;;;;;;5003359;28;20185;-88
2022/03/02 04:27:35;;;;;;;28.37;21.70;;;7.90;99.90;;;;;;5002742;28;20651;-89
2022/03/02 04:30:05;;;;;;;29.53;20.67;;;8.00;99.90;;;;;;5003321;28;20186;-87
2022/03/02 04:32:34;;;;;;;32.90;21.67;;;8.10;99.90;;;;;;5002753;28;20194;-87
2022/03/02 04:35:06;;;;;;;31.87;21.57;;;8.10;99.90;;;;;;5003706;28;20213;-87
2022/03/02 04:37:33;;;;;;;27.53;20.57;;;8.10;99.90;;;;;;5003260;28;20203;-88
2022/03/02 04:40:06;;;;;;;26.70;20.23;;;8.00;99.90;;;;;;5003313;28;20608;-87
2022/03/02 04:42:35;;;;;;;28.43;20.63;;;7.90;99.90;;;;;;5002974;28;20174;-88
2022/03/02 04:45:07;;;;;;;30.87;21.00;;;7.90;99.90;;;;;;4987036;28;20202;-88
2022/03/02 04:47:36;;;;;;;31.57;21.67;;;7.90;99.90;;;;;;5000238;28;20194;-87
2022/03/02 04:50:07;;;;;;;30.43;21.93;;;8.00;99.90;;;;;;5003821;28;20182;-87
2022/03/02 04:53:02;;;;;;;27.40;20.70;;;8.00;99.90;;;;;;5004385;28;20186;-87
2022/03/02 04:55:31;;;;;;;28.83;21.17;;;7.70;99.90;;;;;;5003602;28;20210;-88
2022/03/02 04:58:07;;;;;;;30.67;20.87;;;7.60;1.00;;;;;;5015639;28;20178;-88
2022/03/02 05:00:39;;;;;;;28.13;21.20;;;7.50;1.00;;;;;;5016337;28;20209;-87
2022/03/02 05:03:06;;;;;;;27.63;20.77;;;7.70;1.00;;;;;;5018142;28;20190;-88
2022/03/02 05:05:41;;;;;;;31.30;21.27;;;7.80;1.00;;;;;;5011003;28;20194;-88
2022/03/02 05:08:13;;;;;;;26.17;21.17;;;7.60;1.00;;;;;;5001937;28;20178;-87
2022/03/02 05:10:41;;;;;;;32.23;21.07;;;7.60;1.00;;;;;;5002019;28;20528;-87
2022/03/02 05:13:09;;;;;;;28.33;21.60;;;7.50;1.00;;;;;;5002958;28;20175;-88
2022/03/02 05:15:35;;;;;;;28.00;20.97;;;7.60;1.00;;;;;;5021339;28;20210;-88
2022/03/02 05:18:05;;;;;;;27.97;21.10;;;7.50;1.00;;;;;;5004689;28;20233;-86
2022/03/02 05:20:34;;;;;;;30.77;21.77;;;7.60;1.00;;;;;;5003513;28;20182;-87
2022/03/02 05:23:00;;;;;;;34.90;21.90;;;7.50;1.00;;;;;;5004357;28;20243;-88
2022/03/02 05:28:52;;;;;;;27.43;20.70;;;7.50;1.00;;;;;;4941807;29;20188;-88
2022/03/02 05:31:30;;;;;;;30.90;20.93;;;7.40;1.00;;;;;;4980596;28;20190;-88
2022/03/02 05:33:56;;;;;;;30.87;21.80;;;7.40;1.00;;;;;;5004572;28;20189;-88
2022/03/02 05:36:24;;;;;;;32.67;21.77;;;7.50;1.00;;;;;;5003224;28;20222;-88
2022/03/02 05:38:54;;;;;;;29.97;22.10;;;7.50;1.00;;;;;;5002955;28;20689;-88
2022/03/02 05:41:21;;;;;;;31.37;21.00;;;7.30;1.00;;;;;;5021558;28;20161;-88
2022/03/02 05:43:53;;;;;;;32.50;20.97;;;7.20;1.00;;;;;;5005239;28;20669;-88
2022/03/02 05:46:20;;;;;;;32.93;20.37;;;7.20;1.00;;;;;;5003192;28;20210;-88
2022/03/02 05:48:45;;;;;;;29.80;21.30;;;7.20;1.00;;;;;;5001715;28;20175;-88
2022/03/02 05:51:14;;;;;;;26.83;20.03;;;7.20;1.00;;;;;;5002584;28;20559;-87
2022/03/02 05:53:46;;;;;;;29.53;20.27;;;7.20;1.00;;;;;;4990389;28;20190;-87
2022/03/02 05:56:12;;;;;;;30.37;21.77;;;7.00;1.00;;;;;;5005921;28;20220;-89
2022/03/02 05:58:41;;;;;;;29.70;21.63;;;6.90;1.00;;;;;;5003118;28;20294;-88
2022/03/02 06:01:06;;;;;;;30.13;21.23;;;6.90;1.00;;;;;;5002402;28;20182;-87
2022/03/02 06:03:33;;;;;;;30.00;22.70;;;6.90;1.00;;;;;;5002245;28;20245;-88
2022/03/02 06:05:59;;;;;;;34.40;21.40;;;6.90;1.00;;;;;;4986361;28;20206;-90
2022/03/02 06:08:28;;;;;;;30.63;20.27;;;6.90;1.00;;;;;;5004522;28;20230;-88
2022/03/02 06:10:55;;;;;;;31.43;19.77;;;6.70;1.00;;;;;;5019345;28;20236;-88
2022/03/02 06:13:30;;;;;;;29.47;20.20;;;6.60;1.00;;;;;;5000129;28;20252;-89
2022/03/02 06:15:59;;;;;;;30.87;22.20;;;6.70;1.00;;;;;;5002425;28;20221;-87
2022/03/02 06:18:30;;;;;;;27.03;20.33;;;6.80;1.00;;;;;;5005871;28;20182;-89
2022/03/02 06:21:00;;;;;;;30.43;20.47;;;6.80;1.00;;;;;;5003661;28;20182;-87
2022/03/02 06:23:29;;;;;;;27.50;19.90;;;6.80;1.00;;;;;;5005150;28;20257;-90
2022/03/02 06:25:59;;;;;;;30.77;21.20;;;6.80;1.00;;;;;;5004235;28;20179;-89
2022/03/02 06:28:26;;;;;;;26.33;19.40;;;6.80;1.00;;;;;;5002789;28;20178;-88
2022/03/02 06:30:54;;;;;;;32.53;21.50;;;6.90;1.00;;;;;;5003084;28;20182;-89
2022/03/02 06:33:20;;;;;;;28.50;21.20;;;6.90;1.00;;;;;;5021859;28;20173;-88
2022/03/02 06:35:48;;;;;;;28.40;20.53;;;7.00;1.00;;;;;;5003264;28;20218;-88
2022/03/02 06:38:18;;;;;;;31.37;20.77;;;7.00;1.00;;;;;;5007381;28;20229;-89
2022/03/02 06:41:24;;;;;;;26.80;18.80;;;7.40;1.00;;;;;;5003559;28;20277;-90
2022/03/02 06:44:26;;;;;;;28.73;20.67;;;7.10;1.00;;;;;;5022060;28;20175;-88
2022/03/02 06:47:06;;;;;;;28.93;19.53;;;7.10;1.00;;;;;;5003143;28;20197;-88
2022/03/02 06:50:09;;;;;;;31.27;21.03;;;7.20;1.00;;;;;;5002087;28;20177;-89
2022/03/02 06:52:48;;;;;;;27.47;18.37;;;7.20;1.00;;;;;;5003822;28;20178;-88
2022/03/02 06:55:17;;;;;;;31.73;20.70;;;7.20;1.00;;;;;;5003477;28;20225;-90
2022/03/02 06:57:53;;;;;;;29.93;20.47;;;7.20;1.00;;;;;;5005089;28;20186;-88
2022/03/02 07:00:21;;;;;;;24.80;18.27;;;7.30;1.00;;;;;;5007837;28;20189;-89
2022/03/02 07:03:03;;;;;;;25.90;19.30;;;7.30;99.90;;;;;;5008478;28;20196;-89
2022/03/02 07:05:32;;;;;;;29.93;19.07;;;7.30;99.90;;;;;;5008279;28;20221;-87
2022/03/02 07:08:04;;;;;;;29.53;18.13;;;7.40;99.90;;;;;;5012536;28;20163;-87
2022/03/02 07:10:35;;;;;;;27.87;18.80;;;7.40;37.50;;;;;;5017616;28;20635;-89
2022/03/02 07:13:03;;;;;;;23.93;17.60;;;7.50;1.00;;;;;;5018024;28;20182;-88
2022/03/02 07:15:31;;;;;;;29.03;18.97;;;7.60;99.90;;;;;;5018520;28;20210;-89
2022/03/02 07:18:02;;;;;;;27.87;17.43;;;7.90;74.70;;;;;;5017588;28;20182;-88
2022/03/02 07:20:40;;;;;;;29.13;18.70;;;8.00;1.00;;;;;;5014487;28;20182;-89
2022/03/02 07:23:34;;;;;;;28.83;17.47;;;8.40;99.90;;;;;;5008153;28;20174;-88
2022/03/02 07:26:02;;;;;;;26.17;17.60;;;8.30;99.90;;;;;;5005590;28;20174;-88
2022/03/02 07:28:29;;;;;;;23.30;16.93;;;8.40;1.00;;;;;;5004362;28;20250;-87
2022/03/02 07:31:00;;;;;;;22.87;16.00;;;8.40;1.00;;;;;;5008866;28;20255;-88
2022/03/02 07:33:27;;;;;;;22.07;16.20;;;8.50;1.00;;;;;;5006715;28;20178;-88
2022/03/02 07:36:00;;;;;;;21.77;15.97;;;8.40;1.00;;;;;;5008502;28;20229;-87
2022/03/02 07:38:55;;;;;;;23.87;16.07;;;8.40;1.00;;;;;;5020971;28;20194;-90
2022/03/02 07:41:23;;;;;;;22.63;16.10;;;8.60;1.00;;;;;;5037902;28;20174;-87
2022/03/02 07:43:53;;;;;;;22.63;15.20;;;8.80;99.90;;;;;;5013558;28;20186;-86
2022/03/02 07:46:22;;;;;;;24.20;15.73;;;9.20;1.00;;;;;;5017485;28;20193;-91
2022/03/02 07:48:57;;;;;;;21.10;15.10;;;9.30;1.00;;;;;;5021069;28;20170;-88
2022/03/02 07:51:31;;;;;;;20.33;14.20;;;9.20;99.90;;;;;;5020099;28;20182;-91
2022/03/02 07:54:04;;;;;;;19.60;14.67;;;9.30;85.20;;;;;;5009822;28;20239;-88
2022/03/02 07:56:37;;;;;;;25.93;14.47;;;9.30;1.00;;;;;;5006694;28;20340;-88
2022/03/02 07:59:08;;;;;;;20.73;15.27;;;9.30;1.00;;;;;;5004669;28;20174;-88
2022/03/02 08:01:53;;;;;;;19.00;14.13;;;9.50;1.00;;;;;;5004777;28;20197;-89
2022/03/02 08:04:32;;;;;;;22.37;15.00;;;9.50;1.00;;;;;;5006200;28;20261;-89
2022/03/02 08:07:11;;;;;;;22.53;14.97;;;9.70;99.90;;;;;;5005925;28;20175;-89
2022/03/02 08:10:03;;;;;;;21.43;15.20;;;10.00;99.90;;;;;;5005110;28;20182;-90
2022/03/02 08:12:31;;;;;;;19.17;14.30;;;9.90;99.90;;;;;;5002794;28;20184;-90
2022/03/02 08:14:57;;;;;;;20.60;13.97;;;9.70;99.90;;;;;;5002761;28;20175;-88
2022/03/02 08:17:27;;;;;;;20.43;15.20;;;9.80;99.90;;;;;;5004318;28;20233;-88
2022/03/02 08:19:58;;;;;;;23.20;15.47;;;9.90;99.90;;;;;;5005081;28;20265;-91
2022/03/02 08:22:26;;;;;;;18.90;14.23;;;9.90;99.90;;;;;;5005928;28;20595;-89
2022/03/02 08:25:12;;;;;;;21.67;14.23;;;10.00;40.90;;;;;;5005406;28;20187;-91
2022/03/02 08:27:47;;;;;;;22.07;14.90;;;10.10;27.30;;;;;;4991584;28;20217;-90
2022/03/02 08:30:13;;;;;;;20.47;13.63;;;10.20;2.40;;;;;;5010195;28;20181;-88
2022/03/02 08:32:47;;;;;;;18.33;14.37;;;10.40;1.00;;;;;;5018413;28;20186;-89
2022/03/02 08:35:17;;;;;;;19.53;13.80;;;10.50;1.00;;;;;;5015323;28;20209;-87
2022/03/02 08:37:54;;;;;;;23.33;14.53;;;10.70;1.00;;;;;;5012504;28;20706;-88
2022/03/02 08:40:19;;;;;;;24.77;13.77;;;10.70;1.00;;;;;;5006293;28;20178;-89
2022/03/02 08:43:15;;;;;;;18.70;12.40;;;11.00;1.00;;;;;;4986008;28;20183;-87
2022/03/02 08:45:47;;;;;;;19.03;13.53;;;10.90;1.00;;;;;;5006021;28;20186;-88
2022/03/02 08:49:08;;;;;;;17.60;12.33;;;11.00;1.00;;;;;;4991859;28;20214;-88
2022/03/02 08:51:50;;;;;;;17.63;12.50;;;10.90;1.00;;;;;;5009849;28;20305;-86
2022/03/02 08:54:47;;;;;;;28.07;12.30;;;11.10;1.00;;;;;;5009311;28;20182;-88
2022/03/02 08:57:18;;;;;;;20.23;12.40;;;11.10;1.00;;;;;;5006772;28;20183;-87
2022/03/02 09:00:32;;;;;;;16.47;11.90;;;11.10;1.00;;;;;;5004712;28;20183;-89
2022/03/02 09:03:36;;;;;;;15.67;11.53;;;10.80;1.00;;;;;;5003140;28;20182;-88
2022/03/02 09:06:16;;;;;;;13.40;10.90;;;10.50;1.00;;;;;;5006293;28;20210;-89
2022/03/02 09:08:58;;;;;;;15.03;11.00;;;10.20;1.00;;;;;;5005176;28;20672;-88
2022/03/02 09:11:24;;;;;;;18.63;11.90;;;10.00;1.00;;;;;;5005035;28;20186;-89
2022/03/02 09:14:08;;;;;;;16.13;11.03;;;10.20;1.00;;;;;;5004667;28;20177;-89
2022/03/02 09:16:45;;;;;;;16.83;10.93;;;10.20;1.00;;;;;;5005277;28;20264;-88
2022/03/02 09:19:15;;;;;;;16.23;11.77;;;10.50;1.00;;;;;;5005161;28;20288;-88
2022/03/02 09:21:45;;;;;;;16.17;11.13;;;10.80;1.00;;;;;;5004745;28;20217;-88
2022/03/02 09:24:12;;;;;;;19.33;11.83;;;11.00;1.00;;;;;;5005895;28;20174;-89
2022/03/02 09:26:43;;;;;;;18.77;11.70;;;11.10;1.00;;;;;;5006144;28;20293;-88
2022/03/02 09:29:15;;;;;;;17.27;12.43;;;11.30;1.00;;;;;;5005673;28;20213;-88
2022/03/02 09:31:50;;;;;;;20.40;13.87;;;11.40;1.00;;;;;;5024217;28;20615;-87
2022/03/02 09:34:27;;;;;;;22.77;13.13;;;11.10;1.00;;;;;;5005439;28;20186;-90
2022/03/02 09:37:02;;;;;;;26.30;16.67;;;11.00;1.00;;;;;;4999228;28;20273;-90
2022/03/02 09:39:38;;;;;;;26.03;17.77;;;10.50;1.00;;;;;;4989037;28;20206;-88
2022/03/02 09:42:18;;;;;;;25.03;17.70;;;10.30;99.90;;;;;;4990157;28;20193;-89
2022/03/02 09:44:52;;;;;;;25.60;16.80;;;10.10;99.90;;;;;;4988238;28;20182;-91
2022/03/02 09:47:24;;;;;;;22.40;15.87;;;9.80;99.90;;;;;;4996468;28;20266;-88
2022/03/02 09:49:56;;;;;;;22.50;14.90;;;9.60;1.00;;;;;;4998047;28;20171;-88
2022/03/02 09:55:24;;;;;;;26.07;16.80;;;9.40;1.00;;;;;;4990372;28;20238;-88
2022/03/02 09:57:59;;;;;;;25.40;15.93;;;9.50;1.00;;;;;;4988016;28;20266;-89
2022/03/02 10:00:33;;;;;;;18.53;12.90;;;9.60;1.00;;;;;;4990169;28;20237;-88
2022/03/02 10:03:07;;;;;;;22.43;14.70;;;9.60;99.60;;;;;;4992160;28;20221;-89
2022/03/02 10:05:33;;;;;;;18.17;13.27;;;9.80;99.90;;;;;;4973124;28;20202;-87
2022/03/02 10:08:09;;;;;;;20.50;15.13;;;9.90;1.00;;;;;;4988809;28;20195;-88
2022/03/02 10:10:40;;;;;;;21.17;14.60;;;10.00;99.90;;;;;;4988355;28;20234;-88
2022/03/02 10:13:10;;;;;;;19.57;13.70;;;10.00;99.90;;;;;;4990190;28;20175;-88
2022/03/02 10:15:41;;;;;;;18.13;13.00;;;10.20;1.00;;;;;;5001760;28;20230;-87
2022/03/02 10:18:11;;;;;;;19.70;13.17;;;10.20;1.00;;;;;;5002322;28;20175;-86
2022/03/02 10:20:43;;;;;;;18.43;13.70;;;10.40;1.00;;;;;;4994895;28;20260;-87
2022/03/02 10:23:46;;;;;;;19.53;13.00;;;10.30;1.00;;;;;;4993666;28;20210;-88
2022/03/02 10:26:24;;;;;;;18.20;12.40;;;10.30;1.00;;;;;;4988156;28;20183;-89
2022/03/02 10:29:09;;;;;;;18.60;12.80;;;10.30;1.00;;;;;;4985820;28;20187;-88
2022/03/02 10:31:56;;;;;;;18.47;12.47;;;10.50;1.00;;;;;;4984930;28;20175;-88
2022/03/02 10:34:35;;;;;;;19.33;13.10;;;10.70;1.00;;;;;;5007187;28;20612;-88
2022/03/02 10:37:19;;;;;;;18.60;12.00;;;11.10;1.00;;;;;;4993280;28;20257;-89
2022/03/02 10:39:52;;;;;;;18.47;12.17;;;11.20;1.00;;;;;;5000130;28;20171;-89
2022/03/02 10:42:28;;;;;;;16.00;11.43;;;11.20;1.00;;;;;;5010837;28;20191;-87
2022/03/02 10:45:21;;;;;;;19.57;12.10;;;11.20;1.00;;;;;;4992103;28;20232;-89
2022/03/02 10:48:28;;;;;;;17.73;12.50;;;11.00;1.00;;;;;;4983347;28;20284;-87
2022/03/02 10:50:59;;;;;;;17.53;12.43;;;11.10;1.00;;;;;;4979876;28;20681;-90
2022/03/02 10:53:33;;;;;;;16.73;12.17;;;11.20;1.00;;;;;;4982120;28;20221;-89
2022/03/02 10:56:04;;;;;;;19.17;12.03;;;11.60;1.00;;;;;;4981541;28;20273;-88
2022/03/02 10:58:31;;;;;;;15.70;11.80;;;11.90;1.00;;;;;;4982077;28;20171;-88
2022/03/02 11:01:06;;;;;;;14.80;11.13;;;11.90;1.00;;;;;;4983358;28;20190;-87
2022/03/02 11:03:37;;;;;;;17.17;11.93;;;11.70;1.00;;;;;;4965684;28;20268;-88
2022/03/02 11:06:06;;;;;;;15.70;12.13;;;11.50;1.00;;;;;;4982893;28;20230;-88
2022/03/02 11:08:43;;;;;;;15.03;11.57;;;11.50;1.00;;;;;;4982663;28;20183;-89
2022/03/02 11:11:10;;;;;;;20.90;13.73;;;11.20;1.00;;;;;;4983150;28;20543;-89
2022/03/02 11:13:40;;;;;;;16.97;12.70;;;11.40;1.00;;;;;;4982216;28;20620;-88
2022/03/02 11:16:18;;;;;;;15.10;11.90;;;11.50;1.00;;;;;;4984638;28;20246;-90
2022/03/02 11:18:48;;;;;;;19.37;13.03;;;11.50;1.00;;;;;;4982961;28;20744;-89
2022/03/02 11:21:20;;;;;;;15.00;11.70;;;11.60;1.00;;;;;;5000868;28;20187;-88
2022/03/02 11:23:51;;;;;;;20.30;13.23;;;11.70;1.00;;;;;;4982359;28;20223;-88
2022/03/02 11:26:26;;;;;;;19.73;11.60;;;11.90;1.00;;;;;;4981773;28;20186;-87
2022/03/02 11:29:06;;;;;;;14.70;11.23;;;12.20;1.00;;;;;;4982816;28;20182;-88
2022/03/02 11:31:47;;;;;;;17.97;12.67;;;12.00;1.00;;;;;;4982430;28;20250;-89
2022/03/02 11:34:26;;;;;;;20.13;12.90;;;11.80;1.00;;;;;;4982542;28;20214;-88
2022/03/02 11:37:08;;;;;;;18.33;12.83;;;11.70;1.00;;;;;;4983474;28;20218;-88
2022/03/02 11:39:45;;;;;;;22.30;13.33;;;11.70;1.00;;;;;;4987577;28;20698;-88
2022/03/02 11:42:12;;;;;;;17.70;13.23;;;11.70;1.00;;;;;;4983220;28;20187;-87
2022/03/02 11:44:53;;;;;;;18.37;13.20;;;11.70;1.00;;;;;;4984302;28;20197;-87
2022/03/02 11:47:20;;;;;;;18.23;13.93;;;11.60;1.00;;;;;;4985838;28;20191;-88
2022/03/02 11:49:47;;;;;;;19.83;14.23;;;11.70;1.00;;;;;;4981880;28;20202;-86
2022/03/02 11:52:26;;;;;;;18.50;13.83;;;11.80;1.00;;;;;;4981786;28;20205;-88
2022/03/02 11:55:09;;;;;;;22.20;13.80;;;11.80;1.00;;;;;;4982033;28;20193;-88
2022/03/02 11:57:49;;;;;;;19.83;13.50;;;11.70;1.00;;;;;;4982568;28;20197;-89
2022/03/02 12:00:31;;;;;;;21.80;14.00;;;11.50;1.00;;;;;;4984934;28;20174;-87
2022/03/02 12:03:08;;;;;;;20.13;14.53;;;11.60;1.00;;;;;;4986794;28;20186;-88
2022/03/02 12:05:41;;;;;;;18.63;13.07;;;11.60;1.00;;;;;;5001619;28;20216;-87
2022/03/02 12:08:13;;;;;;;18.53;12.67;;;11.40;1.00;;;;;;4968123;28;20639;-90
2022/03/02 12:10:42;;;;;;;18.40;13.10;;;11.40;1.00;;;;;;4985373;28;20222;-88
2022/03/02 12:13:17;;;;;;;17.17;12.83;;;11.40;1.00;;;;;;5002388;28;20342;-87
2022/03/02 12:15:54;;;;;;;15.57;11.80;;;11.40;1.00;;;;;;5002287;28;20613;-89
2022/03/02 12:18:22;;;;;;;18.50;13.63;;;11.50;1.00;;;;;;4984101;28;20194;-89
2022/03/02 12:20:56;;;;;;;16.63;12.13;;;11.50;1.00;;;;;;4985647;28;20194;-89
2022/03/02 12:23:32;;;;;;;17.73;12.83;;;11.50;1.00;;;;;;4988230;28;20710;-88
2022/03/02 12:26:08;;;;;;;17.47;12.13;;;11.60;1.00;;;;;;4987382;28;20179;-87
2022/03/02 12:28:55;;;;;;;20.97;12.57;;;11.50;1.00;;;;;;4988637;28;20234;-87
2022/03/02 12:31:31;;;;;;;19.60;13.07;;;11.40;1.00;;;;;;4987295;28;20499;-89
2022/03/02 12:34:20;;;;;;;17.77;12.60;;;11.40;1.00;;;;;;4986672;28;20175;-88
2022/03/02 12:37:01;;;;;;;18.17;13.23;;;11.30;1.00;;;;;;4984414;28;20229;-89
2022/03/02 12:39:31;;;;;;;19.37;12.73;;;11.40;1.00;;;;;;4984812;28;20207;-88
2022/03/02 12:42:16;;;;;;;21.57;13.50;;;11.40;1.00;;;;;;4986757;28;20175;-88
2022/03/02 12:45:03;;;;;;;21.17;12.97;;;11.40;1.00;;;;;;4986149;28;20179;-88
2022/03/02 12:47:34;;;;;;;18.10;12.27;;;11.40;1.00;;;;;;4988661;28;20254;-88
2022/03/02 12:50:06;;;;;;;19.17;13.27;;;11.70;1.00;;;;;;4995635;28;20171;-87
2022/03/02 12:52:39;;;;;;;15.03;12.90;;;11.50;1.00;;;;;;5019462;28;20167;-88
2022/03/02 12:55:17;;;;;;;17.27;12.47;;;11.50;1.00;;;;;;4998488;28;20258;-88
2022/03/02 12:57:50;;;;;;;19.67;13.07;;;11.50;1.00;;;;;;4985884;28;20186;-88
2022/03/02 13:00:33;;;;;;;17.17;12.63;;;11.60;1.00;;;;;;4970985;28;20191;-89
2022/03/02 13:03:09;;;;;;;17.30;11.67;;;11.70;1.00;;;;;;4996114;28;20289;-87
2022/03/02 13:05:47;;;;;;;19.57;12.07;;;12.00;1.00;;;;;;4993080;28;20202;-86
2022/03/02 13:08:29;;;;;;;18.33;11.83;;;11.60;1.00;;;;;;4993685;28;20183;-88
2022/03/02 13:11:42;;;;;;;17.77;11.77;;;11.60;1.00;;;;;;4994056;28;20179;-85
2022/03/02 13:14:34;;;;;;;17.20;12.13;;;11.60;1.00;;;;;;4919646;29;20196;-86
2022/03/02 13:17:24;;;;;;;14.47;11.33;;;11.80;1.00;;;;;;4912595;29;20717;-88
2022/03/02 13:19:58;;;;;;;18.60;11.27;;;11.90;1.00;;;;;;4915994;29;20210;-86
2022/03/02 13:22:28;;;;;;;16.50;11.20;;;12.10;1.00;;;;;;4971017;28;20282;-86